Benwood, Indiana
Current Conditions -  °F | °C
As of 8:53 AM on Saturday 20 Dec 2014 (Local Time) from KHUF Reporting Station
Haze Haze  
Wind Chill: 24°   Ceiling: 6000
Heat Index: 29°   Visibility: 5mi
Dew Point: 26°   Wind: 5mph
Humidity: 89%   Direction: 110°ESE
Pressure: 30.3"   Gusts: NA
Location:  39.5158°N, 87.1262°W
Report Text: KHUF 201353Z 11004KT 5SM BR OVC060 M02/M03 A3030 RMK AO2 SLP266 T10171033
Loading
Personal Weather Stations






























Interactive Weather Map New forecast layout! Learn more

10-Day Weather Forecast

Advertisements
Track Severe Weather on mobile